sensor_id;sensor_type;location;lat;lon;timestamp;pressure;altitude;pressure_sealevel;temperature;humidity
25560;BME280;13450;49.374;8.584;2023-01-27T00:02:03;100972.75;;;-1.06;100.00
25560;BME280;13450;49.374;8.584;2023-01-27T00:04:28;100971.72;;;-1.03;100.00
25560;BME280;13450;49.374;8.584;2023-01-27T00:06:54;100966.47;;;-1.03;100.00
25560;BME280;13450;49.374;8.584;2023-01-27T00:09:21;100958.34;;;-1.00;100.00
25560;BME280;13450;49.374;8.584;2023-01-27T00:11:51;100966.16;;;-0.98;100.00
25560;BME280;13450;49.374;8.584;2023-01-27T00:14:35;100961.66;;;-0.96;100.00
25560;BME280;13450;49.374;8.584;2023-01-27T00:17:00;100966.91;;;-0.96;100.00
25560;BME280;13450;49.374;8.584;2023-01-27T00:19:26;100956.41;;;-0.96;100.00
25560;BME280;13450;49.374;8.584;2023-01-27T00:21:51;100958.19;;;-0.97;100.00
25560;BME280;13450;49.374;8.584;2023-01-27T00:24:35;100955.72;;;-1.00;100.00
25560;BME280;13450;49.374;8.584;2023-01-27T00:27:02;100952.19;;;-0.99;100.00
25560;BME280;13450;49.374;8.584;2023-01-27T00:29:27;100949.44;;;-0.97;100.00
25560;BME280;13450;49.374;8.584;2023-01-27T00:31:53;100947.84;;;-1.00;100.00
25560;BME280;13450;49.374;8.584;2023-01-27T00:34:36;100944.41;;;-1.00;100.00
25560;BME280;13450;49.374;8.584;2023-01-27T00:37:03;100947.75;;;-0.98;100.00
25560;BME280;13450;49.374;8.584;2023-01-27T00:39:29;100950.47;;;-1.00;100.00
25560;BME280;13450;49.374;8.584;2023-01-27T00:41:54;100942.72;;;-1.01;100.00
25560;BME280;13450;49.374;8.584;2023-01-27T00:44:19;100950.47;;;-1.00;100.00
25560;BME280;13450;49.374;8.584;2023-01-27T00:46:44;100952.81;;;-0.95;100.00
25560;BME280;13450;49.374;8.584;2023-01-27T00:49:10;100944.19;;;-0.97;100.00
25560;BME280;13450;49.374;8.584;2023-01-27T00:51:37;100937.25;;;-0.98;100.00
25560;BME280;13450;49.374;8.584;2023-01-27T00:54:02;100939.78;;;-0.97;100.00
25560;BME280;13450;49.374;8.584;2023-01-27T00:56:29;100932.84;;;-0.98;100.00
25560;BME280;13450;49.374;8.584;2023-01-27T00:58:54;100938.94;;;-0.97;100.00
25560;BME280;13450;49.374;8.584;2023-01-27T01:01:19;100937.91;;;-0.95;100.00
25560;BME280;13450;49.374;8.584;2023-01-27T01:03:45;100932.84;;;-0.98;100.00
25560;BME280;13450;49.374;8.584;2023-01-27T01:06:15;100934.72;;;-1.00;100.00
25560;BME280;13450;49.374;8.584;2023-01-27T01:08:41;100933.03;;;-1.01;100.00
25560;BME280;13450;49.374;8.584;2023-01-27T01:11:08;100933.22;;;-1.04;100.00
25560;BME280;13450;49.374;8.584;2023-01-27T01:13:35;100937.91;;;-1.09;100.00
25560;BME280;13450;49.374;8.584;2023-01-27T01:16:12;100934.47;;;-1.10;100.00
25560;BME280;13450;49.374;8.584;2023-01-27T01:18:38;100937.91;;;-1.09;100.00
25560;BME280;13450;49.374;8.584;2023-01-27T01:21:03;100938.88;;;-1.10;100.00
25560;BME280;13450;49.374;8.584;2023-01-27T01:23:32;100938.97;;;-1.12;100.00
25560;BME280;13450;49.374;8.584;2023-01-27T01:25:58;100946.84;;;-1.12;100.00
25560;BME280;13450;49.374;8.584;2023-01-27T01:28:23;100948.75;;;-1.14;100.00
25560;BME280;13450;49.374;8.584;2023-01-27T01:30:49;100942.63;;;-1.14;100.00
25560;BME280;13450;49.374;8.584;2023-01-27T01:33:14;100948.81;;;-1.15;100.00
25560;BME280;13450;49.374;8.584;2023-01-27T01:35:42;100944.53;;;-1.16;100.00
25560;BME280;13450;49.374;8.584;2023-01-27T01:38:08;100941.81;;;-1.15;100.00
25560;BME280;13450;49.374;8.584;2023-01-27T01:40:33;100934.84;;;-1.16;100.00
25560;BME280;13450;49.374;8.584;2023-01-27T01:43:08;100944.31;;;-1.13;100.00
25560;BME280;13450;49.374;8.584;2023-01-27T01:51:35;100945.81;;;-1.09;100.00
25560;BME280;13450;49.374;8.584;2023-01-27T01:53:39;100938.69;;;-1.07;100.00
25560;BME280;13450;49.374;8.584;2023-01-27T01:56:11;100947.31;;;-1.05;100.00
25560;BME280;13450;49.374;8.584;2023-01-27T01:58:39;100947.50;;;-1.08;100.00
25560;BME280;13450;49.374;8.584;2023-01-27T02:01:05;100934.38;;;-1.08;100.00
25560;BME280;13450;49.374;8.584;2023-01-27T02:03:32;100937.75;;;-1.06;100.00
25560;BME280;13450;49.374;8.584;2023-01-27T02:06:03;100934.16;;;-1.05;100.00
25560;BME280;13450;49.374;8.584;2023-01-27T02:08:39;100940.19;;;-1.03;100.00
25560;BME280;13450;49.374;8.584;2023-01-27T02:11:07;100927.97;;;-1.04;100.00
25560;BME280;13450;49.374;8.584;2023-01-27T02:13:32;100932.31;;;-1.03;100.00
25560;BME280;13450;49.374;8.584;2023-01-27T02:15:58;100942.81;;;-1.03;100.00
25560;BME280;13450;49.374;8.584;2023-01-27T02:18:25;100937.66;;;-1.04;100.00
25560;BME280;13450;49.374;8.584;2023-01-27T02:20:52;100926.09;;;-1.02;100.00
25560;BME280;13450;49.374;8.584;2023-01-27T02:26:30;100925.16;;;-1.01;100.00
25560;BME280;13450;49.374;8.584;2023-01-27T02:29:07;100935.47;;;-0.98;100.00
25560;BME280;13450;49.374;8.584;2023-01-27T02:31:33;100932.84;;;-0.98;100.00
25560;BME280;13450;49.374;8.584;2023-01-27T02:34:03;100928.41;;;-0.97;100.00
25560;BME280;13450;49.374;8.584;2023-01-27T02:36:31;100926.56;;;-0.95;100.00
25560;BME280;13450;49.374;8.584;2023-01-27T02:38:59;100927.28;;;-0.93;100.00
25560;BME280;13450;49.374;8.584;2023-01-27T02:41:30;100934.13;;;-0.90;100.00
25560;BME280;13450;49.374;8.584;2023-01-27T02:44:00;100927.09;;;-0.90;100.00
25560;BME280;13450;49.374;8.584;2023-01-27T02:46:26;100927.00;;;-0.88;100.00
25560;BME280;13450;49.374;8.584;2023-01-27T02:48:54;100927.00;;;-0.88;100.00
25560;BME280;13450;49.374;8.584;2023-01-27T02:51:19;100927.00;;;-0.88;100.00
25560;BME280;13450;49.374;8.584;2023-01-27T02:53:47;100932.25;;;-0.88;100.00
25560;BME280;13450;49.374;8.584;2023-01-27T02:56:13;100927.84;;;-0.88;100.00
25560;BME280;13450;49.374;8.584;2023-01-27T02:58:38;100927.72;;;-0.86;100.00
25560;BME280;13450;49.374;8.584;2023-01-27T03:01:04;100928.78;;;-0.89;100.00
25560;BME280;13450;49.374;8.584;2023-01-27T03:03:29;100929.72;;;-0.90;100.00
25560;BME280;13450;49.374;8.584;2023-01-27T03:05:54;100929.63;;;-0.88;100.00
25560;BME280;13450;49.374;8.584;2023-01-27T03:08:24;100920.88;;;-0.89;100.00
25560;BME280;13450;49.374;8.584;2023-01-27T03:10:51;100930.34;;;-0.86;100.00
25560;BME280;13450;49.374;8.584;2023-01-27T03:13:23;100927.72;;;-0.86;100.00
25560;BME280;13450;49.374;8.584;2023-01-27T03:15:49;100928.69;;;-0.87;100.00
25560;BME280;13450;49.374;8.584;2023-01-27T03:18:34;100934.69;;;-0.85;100.00
25560;BME280;13450;49.374;8.584;2023-01-27T03:21:02;100929.44;;;-0.85;100.00
25560;BME280;13450;49.374;8.584;2023-01-27T03:23:28;100932.06;;;-0.85;100.00
25560;BME280;13450;49.374;8.584;2023-01-27T03:25:53;100933.84;;;-0.86;100.00
25560;BME280;13450;49.374;8.584;2023-01-27T03:28:18;100935.63;;;-0.86;100.00
25560;BME280;13450;49.374;8.584;2023-01-27T03:30:43;100937.50;;;-0.88;100.00
25560;BME280;13450;49.374;8.584;2023-01-27T03:33:09;100942.94;;;-0.92;100.00
25560;BME280;13450;49.374;8.584;2023-01-27T03:35:35;100940.41;;;-0.93;100.00
25560;BME280;13450;49.374;8.584;2023-01-27T03:38:13;100949.06;;;-0.91;100.00
25560;BME280;13450;49.374;8.584;2023-01-27T03:40:57;100943.81;;;-0.91;100.00
25560;BME280;13450;49.374;8.584;2023-01-27T03:43:41;100934.13;;;-0.90;100.00
25560;BME280;13450;49.374;8.584;2023-01-27T03:46:25;100934.13;;;-0.90;100.00
25560;BME280;13450;49.374;8.584;2023-01-27T03:48:52;100938.38;;;-0.88;100.00
25560;BME280;13450;49.374;8.584;2023-01-27T03:51:20;100935.63;;;-0.86;100.00
25560;BME280;13450;49.374;8.584;2023-01-27T03:53:46;100940.88;;;-0.86;100.00
25560;BME280;13450;49.374;8.584;2023-01-27T03:56:12;100943.63;;;-0.88;100.00
25560;BME280;13450;49.374;8.584;2023-01-27T03:58:40;100945.41;;;-0.88;100.00
25560;BME280;13450;49.374;8.584;2023-01-27T04:01:20;100942.78;;;-0.88;100.00
25560;BME280;13450;49.374;8.584;2023-01-27T04:03:46;100956.63;;;-0.86;100.00
25560;BME280;13450;49.374;8.584;2023-01-27T04:06:33;100954.97;;;-0.87;100.00
25560;BME280;13450;49.374;8.584;2023-01-27T04:09:28;100966.25;;;-0.85;100.00
25560;BME280;13450;49.374;8.584;2023-01-27T04:11:55;100959.41;;;-0.88;100.00
25560;BME280;13450;49.374;8.584;2023-01-27T04:14:43;100960.03;;;-0.84;100.00
25560;BME280;13450;49.374;8.584;2023-01-27T04:17:14;100959.41;;;-0.88;100.00
25560;BME280;13450;49.374;8.584;2023-01-27T04:19:43;100962.13;;;-0.89;100.00
25560;BME280;13450;49.374;8.584;2023-01-27T04:22:10;100957.69;;;-0.89;100.00
25560;BME280;13450;49.374;8.584;2023-01-27T04:24:38;100957.69;;;-0.89;100.00
25560;BME280;13450;49.374;8.584;2023-01-27T04:27:10;100955.81;;;-0.87;100.00
25560;BME280;13450;49.374;8.584;2023-01-27T04:29:39;100958.34;;;-0.85;100.00
25560;BME280;13450;49.374;8.584;2023-01-27T04:32:07;100960.22;;;-0.87;100.00
25560;BME280;13450;49.374;8.584;2023-01-27T04:34:33;100960.84;;;-0.84;100.00
25560;BME280;13450;49.374;8.584;2023-01-27T04:36:59;100959.00;;;-0.82;100.00
25560;BME280;13450;49.374;8.584;2023-01-27T04:39:24;100958.34;;;-0.85;100.00
25560;BME280;13450;49.374;8.584;2023-01-27T04:41:50;100960.03;;;-0.84;100.00
25560;BME280;13450;49.374;8.584;2023-01-27T04:44:16;100965.28;;;-0.84;100.00
25560;BME280;13450;49.374;8.584;2023-01-27T04:46:44;100970.53;;;-0.84;100.00
25560;BME280;13450;49.374;8.584;2023-01-27T04:49:10;100966.50;;;-0.90;100.00
25560;BME280;13450;49.374;8.584;2023-01-27T04:51:35;100970.91;;;-0.90;100.00
25560;BME280;13450;49.374;8.584;2023-01-27T04:54:01;100966.41;;;-0.88;100.00
25560;BME280;13450;49.374;8.584;2023-01-27T04:56:32;100966.31;;;-0.87;100.00
25560;BME280;13450;49.374;8.584;2023-01-27T04:59:00;100969.91;;;-0.88;100.00
25560;BME280;13450;49.374;8.584;2023-01-27T05:01:26;100977.88;;;-0.89;100.00
25560;BME280;13450;49.374;8.584;2023-01-27T05:03:51;100977.03;;;-0.90;100.00
25560;BME280;13450;49.374;8.584;2023-01-27T05:06:17;100971.69;;;-0.88;100.00
25560;BME280;13450;49.374;8.584;2023-01-27T05:08:42;100982.00;;;-0.85;100.00
25560;BME280;13450;49.374;8.584;2023-01-27T05:11:08;100976.75;;;-0.85;100.00
25560;BME280;13450;49.374;8.584;2023-01-27T05:13:33;100968.19;;;-0.89;100.00
25560;BME280;13450;49.374;8.584;2023-01-27T05:18:40;100971.50;;;-0.85;100.00
25560;BME280;13450;49.374;8.584;2023-01-27T05:21:07;100972.31;;;-0.85;100.00
25560;BME280;13450;49.374;8.584;2023-01-27T05:23:33;100974.94;;;-0.85;100.00
25560;BME280;13450;49.374;8.584;2023-01-27T05:26:06;100969.69;;;-0.85;100.00
25560;BME280;13450;49.374;8.584;2023-01-27T05:28:33;100979.16;;;-0.82;100.00
25560;BME280;13450;49.374;8.584;2023-01-27T05:31:12;100975.63;;;-0.81;100.00
25560;BME280;13450;49.374;8.584;2023-01-27T05:33:40;100977.09;;;-0.77;100.00
25560;BME280;13450;49.374;8.584;2023-01-27T05:36:10;100980.47;;;-0.75;100.00
25560;BME280;13450;49.374;8.584;2023-01-27T05:38:35;100978.56;;;-0.73;100.00
25560;BME280;13450;49.374;8.584;2023-01-27T05:41:03;100984.69;;;-0.72;100.00
25560;BME280;13450;49.374;8.584;2023-01-27T05:43:30;100978.56;;;-0.73;100.00
25560;BME280;13450;49.374;8.584;2023-01-27T05:48:27;100981.97;;;-0.71;100.00
25560;BME280;13450;49.374;8.584;2023-01-27T05:50:54;100992.47;;;-0.71;100.00
25560;BME280;13450;49.374;8.584;2023-01-27T05:53:20;100987.22;;;-0.71;100.00
25560;BME280;13450;49.374;8.584;2023-01-27T05:55:45;100991.63;;;-0.71;100.00
25560;BME280;13450;49.374;8.584;2023-01-27T05:58:10;100993.44;;;-0.72;100.00
25560;BME280;13450;49.374;8.584;2023-01-27T06:00:36;100996.78;;;-0.70;100.00
25560;BME280;13450;49.374;8.584;2023-01-27T06:03:03;100995.84;;;-0.69;100.00
25560;BME280;13450;49.374;8.584;2023-01-27T06:05:28;100997.56;;;-0.68;100.00
25560;BME280;13450;49.374;8.584;2023-01-27T06:07:54;100995.75;;;-0.67;100.00
25560;BME280;13450;49.374;8.584;2023-01-27T06:10:21;100997.34;;;-0.64;100.00
25560;BME280;13450;49.374;8.584;2023-01-27T06:12:46;101000.72;;;-0.62;100.00
25560;BME280;13450;49.374;8.584;2023-01-27T06:15:14;100992.84;;;-0.62;100.00
25560;BME280;13450;49.374;8.584;2023-01-27T06:17:40;100995.25;;;-0.59;100.00
25560;BME280;13450;49.374;8.584;2023-01-27T06:20:06;101001.38;;;-0.59;100.00
25560;BME280;13450;49.374;8.584;2023-01-27T06:22:31;101005.91;;;-0.61;100.00
25560;BME280;13450;49.374;8.584;2023-01-27T06:24:56;101002.22;;;-0.58;100.00
25560;BME280;13450;49.374;8.584;2023-01-27T06:27:24;101002.22;;;-0.58;100.00
25560;BME280;13450;49.374;8.584;2023-01-27T06:29:52;101007.25;;;-0.55;100.00
25560;BME280;13450;49.374;8.584;2023-01-27T06:32:17;101006.34;;;-0.54;100.00
25560;BME280;13450;49.374;8.584;2023-01-27T06:34:45;101002.66;;;-0.51;100.00
25560;BME280;13450;49.374;8.584;2023-01-27T06:37:10;101009.59;;;-0.50;100.00
25560;BME280;13450;49.374;8.584;2023-01-27T06:39:38;101004.34;;;-0.50;100.00
25560;BME280;13450;49.374;8.584;2023-01-27T06:42:03;101002.44;;;-0.48;100.00
25560;BME280;13450;49.374;8.584;2023-01-27T06:44:31;101004.16;;;-0.47;100.00
25560;BME280;13450;49.374;8.584;2023-01-27T06:46:56;101003.13;;;-0.45;100.00
25560;BME280;13450;49.374;8.584;2023-01-27T06:49:22;101013.63;;;-0.45;100.00
25560;BME280;13450;49.374;8.584;2023-01-27T06:51:47;101011.75;;;-0.43;100.00
25560;BME280;13450;49.374;8.584;2023-01-27T06:54:12;101022.25;;;-0.43;100.00
25560;BME280;13450;49.374;8.584;2023-01-27T06:56:38;101018.91;;;-0.45;100.00
25560;BME280;13450;49.374;8.584;2023-01-27T06:59:03;101034.69;;;-0.45;100.00
25560;BME280;13450;49.374;8.584;2023-01-27T07:01:28;101028.38;;;-0.42;100.00
25560;BME280;13450;49.374;8.584;2023-01-27T07:03:56;101019.63;;;-0.43;100.00
25560;BME280;13450;49.374;8.584;2023-01-27T07:06:21;101032.59;;;-0.40;100.00
25560;BME280;13450;49.374;8.584;2023-01-27T07:08:47;101043.13;;;-0.40;100.00
25560;BME280;13450;49.374;8.584;2023-01-27T07:11:14;101040.47;;;-0.40;100.00
25560;BME280;13450;49.374;8.584;2023-01-27T07:13:39;101057.09;;;-0.39;100.00
25560;BME280;13450;49.374;8.584;2023-01-27T07:16:05;101045.75;;;-0.40;100.00
25560;BME280;13450;49.374;8.584;2023-01-27T07:18:30;101047.44;;;-0.38;100.00
25560;BME280;13450;49.374;8.584;2023-01-27T07:20:56;101053.41;;;-0.36;100.00
25560;BME280;13450;49.374;8.584;2023-01-27T07:23:24;101056.81;;;-0.34;100.00
25560;BME280;13450;49.374;8.584;2023-01-27T07:25:49;101054.91;;;-0.32;100.00
25560;BME280;13450;49.374;8.584;2023-01-27T07:28:14;101073.03;;;-0.28;100.00
25560;BME280;13450;49.374;8.584;2023-01-27T07:30:39;101057.25;;;-0.28;100.00
25560;BME280;13450;49.374;8.584;2023-01-27T07:33:06;101066.63;;;-0.23;100.00
25560;BME280;13450;49.374;8.584;2023-01-27T07:35:33;101065.69;;;-0.22;100.00
25560;BME280;13450;49.374;8.584;2023-01-27T07:37:59;101073.50;;;-0.21;100.00
25560;BME280;13450;49.374;8.584;2023-01-27T07:40:24;101071.59;;;-0.19;100.00
25560;BME280;13450;49.374;8.584;2023-01-27T07:42:49;101069.72;;;-0.17;100.00
25560;BME280;13450;49.374;8.584;2023-01-27T07:45:17;101073.84;;;-0.12;100.00
25560;BME280;13450;49.374;8.584;2023-01-27T07:47:42;101075.44;;;-0.10;100.00
25560;BME280;13450;49.374;8.584;2023-01-27T07:50:08;101082.38;;;-0.09;100.00
25560;BME280;13450;49.374;8.584;2023-01-27T07:52:34;101085.63;;;-0.05;100.00
25560;BME280;13450;49.374;8.584;2023-01-27T07:54:59;101093.53;;;-0.05;100.00
25560;BME280;13450;49.374;8.584;2023-01-27T07:57:24;101099.75;;;-0.06;100.00
25560;BME280;13450;49.374;8.584;2023-01-27T07:59:50;101103.88;;;-0.02;100.00
25560;BME280;13450;49.374;8.584;2023-01-27T08:02:20;101098.59;;;-0.02;100.00
25560;BME280;13450;49.374;8.584;2023-01-27T08:04:48;101099.38;;;0.00;100.00
25560;BME280;13450;49.374;8.584;2023-01-27T08:07:13;101103.69;;;0.01;100.00
25560;BME280;13450;49.374;8.584;2023-01-27T08:09:39;101108.72;;;0.04;100.00
25560;BME280;13450;49.374;8.584;2023-01-27T08:12:04;101104.41;;;0.03;100.00
25560;BME280;13450;49.374;8.584;2023-01-27T08:14:29;101113.81;;;0.07;100.00
25560;BME280;13450;49.374;8.584;2023-01-27T08:16:55;101097.06;;;0.08;100.00
25560;BME280;13450;49.374;8.584;2023-01-27T08:19:20;101096.00;;;0.11;100.00
25560;BME280;13450;49.374;8.584;2023-01-27T08:21:45;101105.81;;;0.09;100.00
25560;BME280;13450;49.374;8.584;2023-01-27T08:24:11;101103.91;;;0.11;100.00
25560;BME280;13450;49.374;8.584;2023-01-27T08:26:37;101100.44;;;0.10;100.00
25560;BME280;13450;49.374;8.584;2023-01-27T08:29:02;101098.66;;;0.11;100.00
25560;BME280;13450;49.374;8.584;2023-01-27T08:31:27;101106.66;;;0.09;100.00
25560;BME280;13450;49.374;8.584;2023-01-27T08:33:53;101108.34;;;0.10;100.00
25560;BME280;13450;49.374;8.584;2023-01-27T08:36:23;101100.66;;;0.07;100.00
25560;BME280;13450;49.374;8.584;2023-01-27T08:38:48;101105.81;;;0.09;100.00
25560;BME280;13450;49.374;8.584;2023-01-27T08:41:20;101097.81;;;0.10;100.00
25560;BME280;13450;49.374;8.584;2023-01-27T08:43:46;101102.75;;;0.15;100.00
25560;BME280;13450;49.374;8.584;2023-01-27T08:46:12;101106.25;;;0.16;100.00
25560;BME280;13450;49.374;8.584;2023-01-27T08:48:38;101113.63;;;0.23;100.00
25560;BME280;13450;49.374;8.584;2023-01-27T08:51:07;101105.44;;;0.28;100.00
25560;BME280;13450;49.374;8.584;2023-01-27T08:53:33;101112.75;;;0.37;100.00
25560;BME280;13450;49.374;8.584;2023-01-27T08:56:04;101110.53;;;0.44;100.00
25560;BME280;13450;49.374;8.584;2023-01-27T08:58:30;101105.72;;;0.51;100.00
25560;BME280;13450;49.374;8.584;2023-01-27T09:00:58;101105.28;;;0.57;100.00
25560;BME280;13450;49.374;8.584;2023-01-27T09:03:24;101108.44;;;0.62;100.00
25560;BME280;13450;49.374;8.584;2023-01-27T09:05:50;101109.94;;;0.67;100.00
25560;BME280;13450;49.374;8.584;2023-01-27T09:08:15;101117.53;;;0.71;100.00
25560;BME280;13450;49.374;8.584;2023-01-27T09:10:41;101113.84;;;0.74;100.00
25560;BME280;13450;49.374;8.584;2023-01-27T09:13:07;101114.47;;;0.77;100.00
25560;BME280;13450;49.374;8.584;2023-01-27T09:15:36;101119.66;;;0.79;100.00
25560;BME280;13450;49.374;8.584;2023-01-27T09:18:02;101119.84;;;0.76;100.00
25560;BME280;13450;49.374;8.584;2023-01-27T09:20:27;101128.50;;;0.78;100.00
25560;BME280;13450;49.374;8.584;2023-01-27T09:22:56;101122.28;;;0.79;100.00
25560;BME280;13450;49.374;8.584;2023-01-27T09:25:22;101130.00;;;0.82;100.00
25560;BME280;13450;49.374;8.584;2023-01-27T09:27:47;101123.00;;;0.81;100.00
25560;BME280;13450;49.374;8.584;2023-01-27T09:30:14;101128.09;;;0.84;100.00
25560;BME280;13450;49.374;8.584;2023-01-27T09:32:42;101131.47;;;0.86;100.00
25560;BME280;13450;49.374;8.584;2023-01-27T09:35:10;101135.59;;;0.90;100.00
25560;BME280;13450;49.374;8.584;2023-01-27T09:37:48;101133.47;;;0.96;100.00
25560;BME280;13450;49.374;8.584;2023-01-27T09:40:23;101138.75;;;0.96;100.00
25560;BME280;13450;49.374;8.584;2023-01-27T09:43:04;101141.16;;;0.99;100.00
25560;BME280;13450;49.374;8.584;2023-01-27T09:45:42;101142.63;;;1.03;100.00
25560;BME280;13450;49.374;8.584;2023-01-27T09:51:12;101149.38;;;1.07;100.00
25560;BME280;13450;49.374;8.584;2023-01-27T09:56:42;101148.03;;;1.14;100.00
25560;BME280;13450;49.374;8.584;2023-01-27T10:12:42;101148.97;;;1.13;100.00
25560;BME280;13450;49.374;8.584;2023-01-27T10:18:05;101148.00;;;1.27;100.00
25560;BME280;13450;49.374;8.584;2023-01-27T10:23:32;101142.50;;;1.43;100.00
25560;BME280;13450;49.374;8.584;2023-01-27T10:26:29;101142.81;;;1.52;100.00
25560;BME280;13450;49.374;8.584;2023-01-27T10:29:03;101147.44;;;1.61;100.00
25560;BME280;13450;49.374;8.584;2023-01-27T10:31:51;101147.41;;;1.74;100.00
25560;BME280;13450;49.374;8.584;2023-01-27T10:34:36;101131.94;;;1.94;100.00
25560;BME280;13450;49.374;8.584;2023-01-27T10:37:17;101130.69;;;2.11;100.00
25560;BME280;13450;49.374;8.584;2023-01-27T10:40:32;101125.50;;;2.34;100.00
25560;BME280;13450;49.374;8.584;2023-01-27T10:43:27;101123.13;;;2.42;100.00
25560;BME280;13450;49.374;8.584;2023-01-27T10:48:37;101127.00;;;2.50;100.00
25560;BME280;13450;49.374;8.584;2023-01-27T10:51:12;101115.47;;;2.51;100.00
25560;BME280;13450;49.374;8.584;2023-01-27T10:53:50;101105.41;;;2.56;100.00
25560;BME280;13450;49.374;8.584;2023-01-27T11:01:52;101109.31;;;2.39;100.00
25560;BME280;13450;49.374;8.584;2023-01-27T11:07:05;101119.13;;;2.37;100.00
25560;BME280;13450;49.374;8.584;2023-01-27T11:09:38;101116.84;;;2.32;100.00
25560;BME280;13450;49.374;8.584;2023-01-27T11:12:11;101119.72;;;2.29;100.00
25560;BME280;13450;49.374;8.584;2023-01-27T11:14:47;101109.41;;;2.26;100.00
25560;BME280;13450;49.374;8.584;2023-01-27T11:17:23;101101.97;;;2.31;100.00
25560;BME280;13450;49.374;8.584;2023-01-27T11:19:55;101100.53;;;2.38;100.00
25560;BME280;13450;49.374;8.584;2023-01-27T11:22:26;101100.81;;;2.46;100.00
25560;BME280;13450;49.374;8.584;2023-01-27T11:25:06;101095.78;;;2.55;100.00
25560;BME280;13450;49.374;8.584;2023-01-27T11:30:18;101090.53;;;2.66;100.00
25560;BME280;13450;49.374;8.584;2023-01-27T11:32:59;101094.03;;;2.78;100.00
25560;BME280;13450;49.374;8.584;2023-01-27T11:35:27;101096.19;;;2.84;100.00
25560;BME280;13450;49.374;8.584;2023-01-27T11:37:53;101102.81;;;2.90;100.00
25560;BME280;13450;49.374;8.584;2023-01-27T11:40:33;101092.00;;;2.82;100.00
25560;BME280;13450;49.374;8.584;2023-01-27T11:43:01;101088.13;;;2.74;100.00
25560;BME280;13450;49.374;8.584;2023-01-27T11:45:31;101085.47;;;2.63;100.00
25560;BME280;13450;49.374;8.584;2023-01-27T11:48:00;101085.44;;;2.52;100.00
25560;BME280;13450;49.374;8.584;2023-01-27T11:50:29;101086.63;;;2.47;100.00
25560;BME280;13450;49.374;8.584;2023-01-27T11:53:03;101082.09;;;2.50;100.00
25560;BME280;13450;49.374;8.584;2023-01-27T11:55:38;101086.28;;;2.52;100.00
25560;BME280;13450;49.374;8.584;2023-01-27T11:58:20;101084.63;;;2.51;100.00
25560;BME280;13450;49.374;8.584;2023-01-27T12:00:54;101082.91;;;2.50;100.00
25560;BME280;13450;49.374;8.584;2023-01-27T12:06:00;101087.31;;;2.38;100.00
25560;BME280;13450;49.374;8.584;2023-01-27T12:08:41;101086.94;;;2.31;100.00
25560;BME280;13450;49.374;8.584;2023-01-27T12:11:22;101085.50;;;2.27;100.00
25560;BME280;13450;49.374;8.584;2023-01-27T12:13:53;101090.63;;;2.17;100.00
25560;BME280;13450;49.374;8.584;2023-01-27T12:16:25;101087.03;;;2.18;100.00
25560;BME280;13450;49.374;8.584;2023-01-27T12:19:03;101085.63;;;2.26;100.00
25560;BME280;13450;49.374;8.584;2023-01-27T12:21:36;101084.88;;;2.24;100.00
25560;BME280;13450;49.374;8.584;2023-01-27T12:24:20;101074.53;;;2.20;100.00
25560;BME280;13450;49.374;8.584;2023-01-27T12:26:50;101085.78;;;2.11;100.00
25560;BME280;13450;49.374;8.584;2023-01-27T12:29:21;101080.00;;;2.06;100.00
25560;BME280;13450;49.374;8.584;2023-01-27T12:31:53;101089.41;;;2.10;100.00
25560;BME280;13450;49.374;8.584;2023-01-27T12:34:26;101092.31;;;2.18;100.00
25560;BME280;13450;49.374;8.584;2023-01-27T12:36:53;101088.00;;;2.17;100.00
25560;BME280;13450;49.374;8.584;2023-01-27T12:39:27;101081.25;;;2.13;100.00
25560;BME280;13450;49.374;8.584;2023-01-27T12:41:54;101080.28;;;2.14;100.00
25560;BME280;13450;49.374;8.584;2023-01-27T12:44:19;101081.59;;;2.08;100.00
25560;BME280;13450;49.374;8.584;2023-01-27T12:47:00;101077.59;;;2.03;100.00
25560;BME280;13450;49.374;8.584;2023-01-27T12:49:36;101081.09;;;2.03;100.00
25560;BME280;13450;49.374;8.584;2023-01-27T12:52:14;101079.78;;;2.09;100.00
25560;BME280;13450;49.374;8.584;2023-01-27T12:54:41;101072.94;;;2.06;100.00
25560;BME280;13450;49.374;8.584;2023-01-27T12:57:12;101071.25;;;2.05;100.00
25560;BME280;13450;49.374;8.584;2023-01-27T12:59:47;101070.63;;;2.02;100.00
25560;BME280;13450;49.374;8.584;2023-01-27T13:02:20;101078.66;;;2.00;100.00
25560;BME280;13450;49.374;8.584;2023-01-27T13:04:59;101078.56;;;2.02;100.00
25560;BME280;13450;49.374;8.584;2023-01-27T13:07:29;101080.00;;;2.06;100.00
25560;BME280;13450;49.374;8.584;2023-01-27T13:10:00;101079.91;;;2.07;100.00
25560;BME280;13450;49.374;8.584;2023-01-27T13:12:29;101079.78;;;2.09;100.00
25560;BME280;13450;49.374;8.584;2023-01-27T13:15:07;101082.44;;;2.09;100.00
25560;BME280;13450;49.374;8.584;2023-01-27T13:17:42;101078.34;;;2.05;100.00
25560;BME280;13450;49.374;8.584;2023-01-27T13:20:18;101073.75;;;2.07;100.00
25560;BME280;13450;49.374;8.584;2023-01-27T13:22:47;101072.09;;;2.06;100.00
25560;BME280;13450;49.374;8.584;2023-01-27T13:25:17;101073.66;;;2.08;100.00
25560;BME280;13450;49.374;8.584;2023-01-27T13:27:44;101084.34;;;2.07;100.00
25560;BME280;13450;49.374;8.584;2023-01-27T13:30:24;101088.69;;;2.08;100.00
25560;BME280;13450;49.374;8.584;2023-01-27T13:32:56;101076.09;;;2.12;100.00
25560;BME280;13450;49.374;8.584;2023-01-27T13:35:30;101084.38;;;2.18;100.00
25560;BME280;13450;49.374;8.584;2023-01-27T13:40:29;101079.81;;;2.20;100.00
25560;BME280;13450;49.374;8.584;2023-01-27T13:45:50;101083.22;;;2.22;100.00
25560;BME280;13450;49.374;8.584;2023-01-27T13:48:34;101087.31;;;2.38;100.00
25560;BME280;13450;49.374;8.584;2023-01-27T13:51:10;101082.16;;;2.95;100.00
25560;BME280;13450;49.374;8.584;2023-01-27T13:53:42;101083.09;;;3.29;100.00
25560;BME280;13450;49.374;8.584;2023-01-27T14:05:35;101090.06;;;3.41;100.00